sensor_id;sensor_type;location;lat;lon;timestamp;pressure;altitude;pressure_sealevel;temperature;humidity
76122;BME280;64853;53.200;6.080;2023-03-31T00:02:38;100255.56;;;18.25;44.80
76122;BME280;64853;53.200;6.080;2023-03-31T00:07:31;100242.88;;;18.24;44.69
76122;BME280;64853;53.200;6.080;2023-03-31T00:12:24;100231.66;;;18.20;44.75
76122;BME280;64853;53.200;6.080;2023-03-31T00:17:16;100210.81;;;18.14;44.60
76122;BME280;64853;53.200;6.080;2023-03-31T00:22:08;100206.31;;;18.18;44.87
76122;BME280;64853;53.200;6.080;2023-03-31T00:27:02;100193.66;;;18.17;44.81
76122;BME280;64853;53.200;6.080;2023-03-31T00:31:56;100182.41;;;18.13;44.69
76122;BME280;64853;53.200;6.080;2023-03-31T00:36:49;100173.31;;;18.13;44.72
76122;BME280;64853;53.200;6.080;2023-03-31T00:41:45;100172.81;;;18.11;44.87
76122;BME280;64853;53.200;6.080;2023-03-31T00:46:41;100150.34;;;18.03;44.83
76122;BME280;64853;53.200;6.080;2023-03-31T00:51:36;100158.22;;;18.10;44.75
76122;BME280;64853;53.200;6.080;2023-03-31T00:56:31;100143.91;;;18.08;44.65
76122;BME280;64853;53.200;6.080;2023-03-31T01:01:25;100137.09;;;18.06;44.71
76122;BME280;64853;53.200;6.080;2023-03-31T01:06:17;100134.34;;;18.06;44.57
76122;BME280;64853;53.200;6.080;2023-03-31T01:11:14;100128.28;;;18.03;44.57
76122;BME280;64853;53.200;6.080;2023-03-31T01:16:06;100117.25;;;18.03;44.77
76122;BME280;64853;53.200;6.080;2023-03-31T01:21:17;100110.75;;;17.99;44.75
76122;BME280;64853;53.200;6.080;2023-03-31T01:26:41;100093.94;;;17.96;44.67
76122;BME280;64853;53.200;6.080;2023-03-31T01:31:48;100090.06;;;17.97;44.67
76122;BME280;64853;53.200;6.080;2023-03-31T01:37:15;100082.09;;;17.95;44.65
76122;BME280;64853;53.200;6.080;2023-03-31T01:42:17;100070.28;;;17.95;44.55
76122;BME280;64853;53.200;6.080;2023-03-31T01:47:14;100059.56;;;17.93;44.60
76122;BME280;64853;53.200;6.080;2023-03-31T01:52:18;100057.91;;;17.92;44.74
76122;BME280;64853;53.200;6.080;2023-03-31T01:57:16;100028.44;;;17.79;44.54
76122;BME280;64853;53.200;6.080;2023-03-31T02:02:12;100037.63;;;17.88;44.44
76122;BME280;64853;53.200;6.080;2023-03-31T02:07:09;100024.75;;;17.83;44.59
76122;BME280;64853;53.200;6.080;2023-03-31T02:12:07;100023.91;;;17.83;44.61
76122;BME280;64853;53.200;6.080;2023-03-31T02:17:03;100017.78;;;17.86;44.55
76122;BME280;64853;53.200;6.080;2023-03-31T02:21:58;100013.44;;;17.85;44.57
76122;BME280;64853;53.200;6.080;2023-03-31T02:26:55;100001.38;;;17.81;44.47
76122;BME280;64853;53.200;6.080;2023-03-31T02:31:55;100003.53;;;17.84;44.47
76122;BME280;64853;53.200;6.080;2023-03-31T02:36:52;99981.06;;;17.77;44.64
76122;BME280;64853;53.200;6.080;2023-03-31T02:41:44;99973.09;;;17.75;44.32
76122;BME280;64853;53.200;6.080;2023-03-31T02:46:36;99974.13;;;17.79;44.52
76122;BME280;64853;53.200;6.080;2023-03-31T02:57:12;99940.03;;;17.75;44.60
76122;BME280;64853;53.200;6.080;2023-03-31T03:02:16;99937.28;;;17.75;44.54
76122;BME280;64853;53.200;6.080;2023-03-31T03:07:15;99926.59;;;17.74;44.48
76122;BME280;64853;53.200;6.080;2023-03-31T03:12:14;99921.09;;;17.74;44.48
76122;BME280;64853;53.200;6.080;2023-03-31T03:17:10;99914.53;;;17.70;44.56
76122;BME280;64853;53.200;6.080;2023-03-31T03:22:05;99880.38;;;17.57;44.52
76122;BME280;64853;53.200;6.080;2023-03-31T03:26:57;99873.34;;;17.64;44.53
76122;BME280;64853;53.200;6.080;2023-03-31T03:31:51;99882.09;;;17.66;44.65
76122;BME280;64853;53.200;6.080;2023-03-31T03:36:43;99865.56;;;17.66;44.51
76122;BME280;64853;53.200;6.080;2023-03-31T03:41:36;99854.06;;;17.64;44.60
76122;BME280;64853;53.200;6.080;2023-03-31T03:46:28;99828.19;;;17.52;44.33
76122;BME280;64853;53.200;6.080;2023-03-31T03:51:22;99837.63;;;17.59;44.52
76122;BME280;64853;53.200;6.080;2023-03-31T03:56:14;99811.34;;;17.53;44.72
76122;BME280;64853;53.200;6.080;2023-03-31T04:01:06;99822.22;;;17.58;44.52
76122;BME280;64853;53.200;6.080;2023-03-31T04:05:58;99817.03;;;17.57;44.82
76122;BME280;64853;53.200;6.080;2023-03-31T04:10:51;99802.81;;;17.77;44.50
76122;BME280;64853;53.200;6.080;2023-03-31T04:15:43;99793.16;;;18.02;44.18
76122;BME280;64853;53.200;6.080;2023-03-31T04:20:35;99787.00;;;18.28;43.91
76122;BME280;64853;53.200;6.080;2023-03-31T04:25:27;99768.91;;;18.45;43.83
76122;BME280;64853;53.200;6.080;2023-03-31T04:30:22;99755.97;;;18.54;43.43
76122;BME280;64853;53.200;6.080;2023-03-31T04:35:14;99730.81;;;18.55;43.25
76122;BME280;64853;53.200;6.080;2023-03-31T04:40:08;99686.16;;;18.45;43.42
76122;BME280;64853;53.200;6.080;2023-03-31T04:45:01;99725.13;;;18.83;43.54
76122;BME280;64853;53.200;6.080;2023-03-31T04:49:55;99716.22;;;18.95;43.31
76122;BME280;64853;53.200;6.080;2023-03-31T04:54:47;99712.50;;;19.00;43.37
76122;BME280;64853;53.200;6.080;2023-03-31T04:59:38;99682.78;;;18.97;43.45
76122;BME280;64853;53.200;6.080;2023-03-31T05:04:31;99685.41;;;19.10;43.26
76122;BME280;64853;53.200;6.080;2023-03-31T05:09:24;99681.19;;;19.22;43.18
76122;BME280;64853;53.200;6.080;2023-03-31T05:14:17;99666.38;;;19.18;43.12
76122;BME280;64853;53.200;6.080;2023-03-31T05:19:08;99667.53;;;19.34;43.21
76122;BME280;64853;53.200;6.080;2023-03-31T05:24:00;99662.16;;;19.38;43.37
76122;BME280;64853;53.200;6.080;2023-03-31T05:28:54;99652.44;;;19.40;43.04
76122;BME280;64853;53.200;6.080;2023-03-31T05:33:46;99644.94;;;19.41;43.24
76122;BME280;64853;53.200;6.080;2023-03-31T05:38:38;99636.66;;;19.41;43.22
76122;BME280;64853;53.200;6.080;2023-03-31T05:43:30;99629.69;;;19.43;43.38
76122;BME280;64853;53.200;6.080;2023-03-31T05:48:24;99621.41;;;19.43;43.22
76122;BME280;64853;53.200;6.080;2023-03-31T05:53:16;99616.66;;;19.44;43.30
76122;BME280;64853;53.200;6.080;2023-03-31T05:58:08;99594.91;;;19.42;42.96
76122;BME280;64853;53.200;6.080;2023-03-31T06:03:00;99592.13;;;19.42;43.21
76122;BME280;64853;53.200;6.080;2023-03-31T06:07:53;99582.22;;;19.41;43.33
76122;BME280;64853;53.200;6.080;2023-03-31T06:12:45;99541.97;;;19.23;44.07
76122;BME280;64853;53.200;6.080;2023-03-31T06:17:37;99566.81;;;19.40;44.54
76122;BME280;64853;53.200;6.080;2023-03-31T06:22:29;99558.34;;;19.45;44.42
76122;BME280;64853;53.200;6.080;2023-03-31T06:27:22;99556.03;;;19.47;44.16
76122;BME280;64853;53.200;6.080;2023-03-31T06:32:14;99496.16;;;19.13;43.79
76122;BME280;64853;53.200;6.080;2023-03-31T06:37:06;99535.53;;;19.57;44.58
76122;BME280;64853;53.200;6.080;2023-03-31T06:41:58;99536.19;;;19.54;44.42
76122;BME280;64853;53.200;6.080;2023-03-31T06:46:52;99529.41;;;19.52;43.70
76122;BME280;64853;53.200;6.080;2023-03-31T06:51:44;99524.03;;;19.46;44.23
76122;BME280;64853;53.200;6.080;2023-03-31T06:56:36;99507.63;;;19.41;44.03
76122;BME280;64853;53.200;6.080;2023-03-31T07:01:28;99502.47;;;19.31;44.53
76122;BME280;64853;53.200;6.080;2023-03-31T07:06:22;99517.56;;;19.34;44.31
76122;BME280;64853;53.200;6.080;2023-03-31T07:11:14;99502.47;;;19.31;44.35
76122;BME280;64853;53.200;6.080;2023-03-31T07:16:07;99506.09;;;19.23;44.45
76122;BME280;64853;53.200;6.080;2023-03-31T07:21:00;99491.13;;;19.24;44.54
76122;BME280;64853;53.200;6.080;2023-03-31T07:25:54;99478.63;;;19.26;44.12
76122;BME280;64853;53.200;6.080;2023-03-31T07:30:51;99490.28;;;19.32;44.64
76122;BME280;64853;53.200;6.080;2023-03-31T07:35:43;99478.28;;;19.28;45.63
76122;BME280;64853;53.200;6.080;2023-03-31T07:40:36;99474.22;;;19.25;45.38
76122;BME280;64853;53.200;6.080;2023-03-31T07:45:29;99465.75;;;19.30;45.91
76122;BME280;64853;53.200;6.080;2023-03-31T07:50:22;99463.63;;;19.36;45.43
76122;BME280;64853;53.200;6.080;2023-03-31T07:55:15;99452.13;;;19.34;45.09
76122;BME280;64853;53.200;6.080;2023-03-31T08:00:08;99453.44;;;19.28;45.10
76122;BME280;64853;53.200;6.080;2023-03-31T08:05:03;99442.91;;;19.21;44.82
76122;BME280;64853;53.200;6.080;2023-03-31T08:09:56;99431.88;;;19.13;45.31
76122;BME280;64853;53.200;6.080;2023-03-31T08:14:48;99421.78;;;19.17;44.94
76122;BME280;64853;53.200;6.080;2023-03-31T08:19:40;99418.84;;;19.22;44.99
76122;BME280;64853;53.200;6.080;2023-03-31T08:24:33;99416.09;;;19.13;44.98
76122;BME280;64853;53.200;6.080;2023-03-31T08:29:25;99414.00;;;19.10;44.70
76122;BME280;64853;53.200;6.080;2023-03-31T08:34:17;99403.75;;;19.19;44.55
76122;BME280;64853;53.200;6.080;2023-03-31T08:39:09;99391.56;;;19.20;44.85
76122;BME280;64853;53.200;6.080;2023-03-31T08:44:06;99393.03;;;19.18;44.78
76122;BME280;64853;53.200;6.080;2023-03-31T08:49:02;99396.75;;;19.22;45.45
76122;BME280;64853;53.200;6.080;2023-03-31T08:53:58;99386.19;;;19.24;45.04
76122;BME280;64853;53.200;6.080;2023-03-31T08:58:53;99386.19;;;19.24;45.00
76122;BME280;64853;53.200;6.080;2023-03-31T09:04:06;99381.97;;;19.18;44.93
76122;BME280;64853;53.200;6.080;2023-03-31T09:09:08;99376.13;;;19.19;45.44
76122;BME280;64853;53.200;6.080;2023-03-31T09:14:12;99379.34;;;19.30;45.54
76122;BME280;64853;53.200;6.080;2023-03-31T09:19:16;99370.72;;;19.32;45.11
76122;BME280;64853;53.200;6.080;2023-03-31T09:24:12;99373.03;;;19.21;45.24
76122;BME280;64853;53.200;6.080;2023-03-31T09:29:11;99372.25;;;19.20;45.48
76122;BME280;64853;53.200;6.080;2023-03-31T09:34:14;99356.28;;;19.26;45.70
76122;BME280;64853;53.200;6.080;2023-03-31T09:39:11;99352.38;;;19.27;45.21
76122;BME280;64853;53.200;6.080;2023-03-31T09:44:03;99362.78;;;19.30;45.10
76122;BME280;64853;53.200;6.080;2023-03-31T09:49:00;99354.22;;;19.23;45.40
76122;BME280;64853;53.200;6.080;2023-03-31T09:53:57;99355.34;;;19.22;45.07
76122;BME280;64853;53.200;6.080;2023-03-31T09:58:52;99358.09;;;19.22;45.20
76122;BME280;64853;53.200;6.080;2023-03-31T10:03:48;99358.56;;;19.24;44.92
76122;BME280;64853;53.200;6.080;2023-03-31T10:08:42;99313.00;;;19.09;44.94
76122;BME280;64853;53.200;6.080;2023-03-31T10:13:44;99342.13;;;19.27;44.86
76122;BME280;64853;53.200;6.080;2023-03-31T10:18:39;99338.63;;;19.18;45.21
76122;BME280;64853;53.200;6.080;2023-03-31T10:23:33;99323.91;;;19.05;45.23
76122;BME280;64853;53.200;6.080;2023-03-31T10:28:26;99324.84;;;19.09;45.18
76122;BME280;64853;53.200;6.080;2023-03-31T10:33:24;99331.44;;;19.26;45.02
76122;BME280;64853;53.200;6.080;2023-03-31T10:38:23;99325.44;;;19.24;45.14
76122;BME280;64853;53.200;6.080;2023-03-31T10:43:18;99328.19;;;19.24;45.95
76122;BME280;64853;53.200;6.080;2023-03-31T10:48:17;99312.78;;;19.23;46.19
76122;BME280;64853;53.200;6.080;2023-03-31T10:53:14;99312.53;;;19.37;45.68
76122;BME280;64853;53.200;6.080;2023-03-31T10:58:18;99305.63;;;19.81;45.71
76122;BME280;64853;53.200;6.080;2023-03-31T11:03:41;99304.78;;;20.02;44.53
76122;BME280;64853;53.200;6.080;2023-03-31T11:08:48;99285.09;;;19.82;45.79
76122;BME280;64853;53.200;6.080;2023-03-31T11:13:50;99299.66;;;19.92;45.87
76122;BME280;64853;53.200;6.080;2023-03-31T11:18:54;99297.66;;;20.01;46.29
76122;BME280;64853;53.200;6.080;2023-03-31T11:23:59;99289.81;;;20.03;47.38
76122;BME280;64853;53.200;6.080;2023-03-31T11:29:05;99289.81;;;20.03;45.75
76122;BME280;64853;53.200;6.080;2023-03-31T11:34:32;99291.44;;;20.04;45.48
76122;BME280;64853;53.200;6.080;2023-03-31T11:39:39;99285.41;;;20.02;44.86
76122;BME280;64853;53.200;6.080;2023-03-31T11:44:39;99292.34;;;20.08;45.16
76122;BME280;64853;53.200;6.080;2023-03-31T11:49:34;99289.13;;;20.06;46.44
76122;BME280;64853;53.200;6.080;2023-03-31T11:54:32;99272.97;;;19.96;45.96
76122;BME280;64853;53.200;6.080;2023-03-31T11:59:27;99285.63;;;19.97;46.38
76122;BME280;64853;53.200;6.080;2023-03-31T12:04:31;99284.72;;;19.93;46.06
76122;BME280;64853;53.200;6.080;2023-03-31T12:09:29;99277.56;;;19.92;45.48
76122;BME280;64853;53.200;6.080;2023-03-31T12:14:28;99278.50;;;19.96;46.33
76122;BME280;64853;53.200;6.080;2023-03-31T12:19:24;99273.03;;;19.87;46.91
76122;BME280;64853;53.200;6.080;2023-03-31T12:24:18;99268.41;;;19.79;46.11
76122;BME280;64853;53.200;6.080;2023-03-31T12:29:20;99270.81;;;19.80;46.60
76122;BME280;64853;53.200;6.080;2023-03-31T12:34:18;99245.88;;;19.68;46.23
76122;BME280;64853;53.200;6.080;2023-03-31T12:39:24;99258.81;;;19.76;46.70
76122;BME280;64853;53.200;6.080;2023-03-31T12:44:32;99237.38;;;19.73;46.14
76122;BME280;64853;53.200;6.080;2023-03-31T12:49:46;99241.09;;;19.77;45.98
76122;BME280;64853;53.200;6.080;2023-03-31T12:55:04;99228.50;;;19.68;45.85
76122;BME280;64853;53.200;6.080;2023-03-31T13:00:21;99223.09;;;19.71;46.19
76122;BME280;64853;53.200;6.080;2023-03-31T13:05:49;99225.41;;;19.69;46.08
76122;BME280;64853;53.200;6.080;2023-03-31T13:10:53;99218.81;;;19.61;46.26
76122;BME280;64853;53.200;6.080;2023-03-31T13:15:50;99219.31;;;19.55;46.11
76122;BME280;64853;53.200;6.080;2023-03-31T13:20:43;99221.00;;;19.47;46.28
76122;BME280;64853;53.200;6.080;2023-03-31T13:25:43;99219.72;;;19.44;46.05
76122;BME280;64853;53.200;6.080;2023-03-31T13:30:56;99219.78;;;19.57;45.94
76122;BME280;64853;53.200;6.080;2023-03-31T13:35:57;99212.94;;;19.63;45.75
76122;BME280;64853;53.200;6.080;2023-03-31T13:41:04;99216.50;;;19.63;45.23
76122;BME280;64853;53.200;6.080;2023-03-31T13:46:31;99204.19;;;19.61;45.28
76122;BME280;64853;53.200;6.080;2023-03-31T13:51:36;99214.91;;;19.62;45.41
76122;BME280;64853;53.200;6.080;2023-03-31T13:56:46;99209.00;;;19.64;44.86
76122;BME280;64853;53.200;6.080;2023-03-31T14:01:57;99194.94;;;19.57;45.16
76122;BME280;64853;53.200;6.080;2023-03-31T14:06:56;99198.34;;;19.62;45.10
76122;BME280;64853;53.200;6.080;2023-03-31T14:11:50;99195.91;;;19.61;45.34
76122;BME280;64853;53.200;6.080;2023-03-31T14:16:44;99189.00;;;19.67;44.79
76122;BME280;64853;53.200;6.080;2023-03-31T14:21:43;99194.69;;;19.71;44.70
76122;BME280;64853;53.200;6.080;2023-03-31T14:26:51;99192.25;;;19.69;44.95
76122;BME280;64853;53.200;6.080;2023-03-31T14:31:51;99158.28;;;19.47;44.77
76122;BME280;64853;53.200;6.080;2023-03-31T14:36:50;99166.88;;;19.67;44.38
76122;BME280;64853;53.200;6.080;2023-03-31T14:41:51;99160.09;;;19.64;44.53
76122;BME280;64853;53.200;6.080;2023-03-31T14:46:45;99172.69;;;19.74;44.28
76122;BME280;64853;53.200;6.080;2023-03-31T14:51:42;99168.53;;;19.68;44.87
76122;BME280;64853;53.200;6.080;2023-03-31T14:56:37;99168.06;;;19.66;44.77
76122;BME280;64853;53.200;6.080;2023-03-31T15:01:33;99145.59;;;19.46;45.17
76122;BME280;64853;53.200;6.080;2023-03-31T15:06:28;99168.94;;;19.58;45.40
76122;BME280;64853;53.200;6.080;2023-03-31T15:11:22;99172.81;;;19.57;45.55
76122;BME280;64853;53.200;6.080;2023-03-31T15:16:29;99170.00;;;19.44;45.36
76122;BME280;64853;53.200;6.080;2023-03-31T15:21:24;99158.50;;;19.42;45.78
76122;BME280;64853;53.200;6.080;2023-03-31T15:26:18;99167.28;;;19.57;44.95
76122;BME280;64853;53.200;6.080;2023-03-31T15:31:12;99167.28;;;19.57;45.45
76122;BME280;64853;53.200;6.080;2023-03-31T15:36:06;99154.59;;;19.43;45.57
76122;BME280;64853;53.200;6.080;2023-03-31T15:41:00;99158.38;;;19.39;45.64
76122;BME280;64853;53.200;6.080;2023-03-31T15:45:52;99159.50;;;19.38;45.60
76122;BME280;64853;53.200;6.080;2023-03-31T15:50:45;99145.34;;;19.39;46.10
76122;BME280;64853;53.200;6.080;2023-03-31T15:55:39;99150.44;;;19.50;45.42
76122;BME280;64853;53.200;6.080;2023-03-31T16:00:44;99131.88;;;19.38;45.95
76122;BME280;64853;53.200;6.080;2023-03-31T16:05:40;99120.97;;;19.20;46.01
76122;BME280;64853;53.200;6.080;2023-03-31T16:10:33;99137.13;;;19.30;46.31
76122;BME280;64853;53.200;6.080;2023-03-31T16:15:30;99140.63;;;19.40;45.73
76122;BME280;64853;53.200;6.080;2023-03-31T16:20:28;99135.66;;;19.33;45.70
76122;BME280;64853;53.200;6.080;2023-03-31T16:25:28;99128.94;;;19.22;46.30
76122;BME280;64853;53.200;6.080;2023-03-31T16:30:32;99090.94;;;19.19;46.09
76122;BME280;64853;53.200;6.080;2023-03-31T16:35:31;99139.38;;;19.37;46.45
76122;BME280;64853;53.200;6.080;2023-03-31T16:40:23;99141.56;;;19.44;45.77
76122;BME280;64853;53.200;6.080;2023-03-31T16:45:15;99147.91;;;19.44;45.75
76122;BME280;64853;53.200;6.080;2023-03-31T16:50:10;99151.81;;;19.43;46.00
76122;BME280;64853;53.200;6.080;2023-03-31T16:55:04;99144.69;;;19.42;46.03
76122;BME280;64853;53.200;6.080;2023-03-31T16:59:57;99141.47;;;19.40;45.73
76122;BME280;64853;53.200;6.080;2023-03-31T17:04:49;99140.63;;;19.40;46.07
76122;BME280;64853;53.200;6.080;2023-03-31T17:09:41;99136.44;;;19.34;45.97
76122;BME280;64853;53.200;6.080;2023-03-31T17:14:34;99107.06;;;19.17;46.32
76122;BME280;64853;53.200;6.080;2023-03-31T17:19:26;99133.16;;;19.40;46.00
76122;BME280;64853;53.200;6.080;2023-03-31T17:24:18;99135.72;;;19.45;45.83
76122;BME280;64853;53.200;6.080;2023-03-31T17:29:11;99134.09;;;19.44;45.92
76122;BME280;64853;53.200;6.080;2023-03-31T17:34:05;99103.47;;;19.16;46.20
76122;BME280;64853;53.200;6.080;2023-03-31T17:38:57;99138.88;;;19.35;46.04
76122;BME280;64853;53.200;6.080;2023-03-31T17:43:49;99138.13;;;19.26;46.50
76122;BME280;64853;53.200;6.080;2023-03-31T17:48:41;99133.09;;;19.28;47.17
76122;BME280;64853;53.200;6.080;2023-03-31T17:53:35;99147.91;;;19.44;48.57
76122;BME280;64853;53.200;6.080;2023-03-31T17:58:27;99151.63;;;19.48;47.42
76122;BME280;64853;53.200;6.080;2023-03-31T18:03:19;99136.44;;;19.34;46.90
76122;BME280;64853;53.200;6.080;2023-03-31T18:08:11;99146.16;;;19.40;46.64
76122;BME280;64853;53.200;6.080;2023-03-31T18:13:04;99157.88;;;19.37;46.95
76122;BME280;64853;53.200;6.080;2023-03-31T18:17:56;99160.72;;;19.28;47.28
76122;BME280;64853;53.200;6.080;2023-03-31T18:22:48;99165.69;;;19.35;47.29
76122;BME280;64853;53.200;6.080;2023-03-31T18:27:40;99144.94;;;19.28;46.71
76122;BME280;64853;53.200;6.080;2023-03-31T18:32:34;99140.09;;;19.25;46.57
76122;BME280;64853;53.200;6.080;2023-03-31T18:37:26;99143.19;;;19.24;46.53
76122;BME280;64853;53.200;6.080;2023-03-31T18:42:18;99164.63;;;19.27;46.94
76122;BME280;64853;53.200;6.080;2023-03-31T18:47:14;99168.59;;;19.38;47.04
76122;BME280;64853;53.200;6.080;2023-03-31T18:52:07;99166.66;;;19.39;46.47
76122;BME280;64853;53.200;6.080;2023-03-31T18:56:59;99164.22;;;19.37;46.55
76122;BME280;64853;53.200;6.080;2023-03-31T19:01:51;99167.84;;;19.29;46.71
76122;BME280;64853;53.200;6.080;2023-03-31T19:06:43;99162.66;;;19.27;46.92
76122;BME280;64853;53.200;6.080;2023-03-31T19:11:37;99125.72;;;19.20;47.26
76122;BME280;64853;53.200;6.080;2023-03-31T19:16:29;99155.72;;;19.42;46.77
76122;BME280;64853;53.200;6.080;2023-03-31T19:21:21;99161.25;;;19.42;46.62
76122;BME280;64853;53.200;6.080;2023-03-31T19:26:15;99157.34;;;19.43;48.95
76122;BME280;64853;53.200;6.080;2023-03-31T19:31:10;99161.03;;;19.47;48.26
76122;BME280;64853;53.200;6.080;2023-03-31T19:36:02;99158.72;;;19.50;47.91
76122;BME280;64853;53.200;6.080;2023-03-31T19:40:54;99164.47;;;19.44;47.70
76122;BME280;64853;53.200;6.080;2023-03-31T19:45:47;99165.97;;;19.42;47.28
76122;BME280;64853;53.200;6.080;2023-03-31T19:50:45;99154.78;;;19.38;47.44
76122;BME280;64853;53.200;6.080;2023-03-31T19:55:38;99144.28;;;19.32;47.43
76122;BME280;64853;53.200;6.080;2023-03-31T20:00:31;99160.97;;;19.35;47.16
76122;BME280;64853;53.200;6.080;2023-03-31T20:05:23;99157.75;;;19.33;46.77
76122;BME280;64853;53.200;6.080;2023-03-31T20:10:17;99138.22;;;19.17;47.09
76122;BME280;64853;53.200;6.080;2023-03-31T20:15:08;99159.09;;;19.27;46.91
76122;BME280;64853;53.200;6.080;2023-03-31T20:20:01;99155.88;;;19.25;47.28
76122;BME280;64853;53.200;6.080;2023-03-31T20:24:53;99152.66;;;19.23;46.82
76122;BME280;64853;53.200;6.080;2023-03-31T20:29:46;99151.81;;;19.22;47.21
76122;BME280;64853;53.200;6.080;2023-03-31T20:34:38;99129.53;;;19.06;46.85
76122;BME280;64853;53.200;6.080;2023-03-31T20:39:30;99155.59;;;19.18;46.66
76122;BME280;64853;53.200;6.080;2023-03-31T20:44:22;99155.59;;;19.18;46.77
76122;BME280;64853;53.200;6.080;2023-03-31T20:49:16;99149.59;;;19.16;46.77
76122;BME280;64853;53.200;6.080;2023-03-31T20:54:08;99145.88;;;19.11;46.73
76122;BME280;64853;53.200;6.080;2023-03-31T20:59:00;99150.59;;;19.11;46.73
76122;BME280;64853;53.200;6.080;2023-03-31T21:03:53;99147.25;;;19.05;46.55
76122;BME280;64853;53.200;6.080;2023-03-31T21:08:52;99155.16;;;19.07;46.52
76122;BME280;64853;53.200;6.080;2023-03-31T21:13:44;99156.19;;;19.02;46.42
76122;BME280;64853;53.200;6.080;2023-03-31T21:18:38;99160.44;;;19.00;46.40
76122;BME280;64853;53.200;6.080;2023-03-31T21:23:31;99161.56;;;18.99;46.48
76122;BME280;64853;53.200;6.080;2023-03-31T21:28:27;99160.31;;;18.96;46.36
76122;BME280;64853;53.200;6.080;2023-03-31T21:33:20;99155.13;;;18.95;46.25
76122;BME280;64853;53.200;6.080;2023-03-31T21:38:13;99159.34;;;18.92;46.38
76122;BME280;64853;53.200;6.080;2023-03-31T21:43:06;99158.03;;;18.89;46.15
76122;BME280;64853;53.200;6.080;2023-03-31T21:48:00;99161.97;;;18.88;46.34
76122;BME280;64853;53.200;6.080;2023-03-31T21:52:52;99167.03;;;18.86;46.62
76122;BME280;64853;53.200;6.080;2023-03-31T21:57:44;99160.72;;;18.77;46.64
76122;BME280;64853;53.200;6.080;2023-03-31T22:02:35;99166.06;;;18.82;46.20
76122;BME280;64853;53.200;6.080;2023-03-31T22:07:29;99163.47;;;18.77;46.27
76122;BME280;64853;53.200;6.080;2023-03-31T22:12:21;99170.91;;;18.76;46.55
76122;BME280;64853;53.200;6.080;2023-03-31T22:17:13;99166.56;;;18.75;46.45
76122;BME280;64853;53.200;6.080;2023-03-31T22:22:05;99164.13;;;18.74;46.47
76122;BME280;64853;53.200;6.080;2023-03-31T22:26:58;99170.78;;;18.73;46.24
76122;BME280;64853;53.200;6.080;2023-03-31T22:31:50;99178.25;;;18.72;46.63
76122;BME280;64853;53.200;6.080;2023-03-31T22:36:43;99168.69;;;18.70;46.46
76122;BME280;64853;53.200;6.080;2023-03-31T22:41:35;99166.94;;;18.65;46.49
76122;BME280;64853;53.200;6.080;2023-03-31T22:46:28;99169.34;;;18.67;46.13
76122;BME280;64853;53.200;6.080;2023-03-31T22:51:21;99167.78;;;18.57;46.27
76122;BME280;64853;53.200;6.080;2023-03-31T22:56:14;99174.75;;;18.63;46.44
76122;BME280;64853;53.200;6.080;2023-03-31T23:01:06;99185.78;;;18.63;46.08
76122;BME280;64853;53.200;6.080;2023-03-31T23:06:02;99175.41;;;18.60;46.16
76122;BME280;64853;53.200;6.080;2023-03-31T23:10:55;99162.94;;;18.54;46.18
76122;BME280;64853;53.200;6.080;2023-03-31T23:15:47;99167.47;;;18.58;46.22
76122;BME280;64853;53.200;6.080;2023-03-31T23:20:39;99165.69;;;18.54;46.17
76122;BME280;64853;53.200;6.080;2023-03-31T23:25:33;99179.00;;;18.52;46.21
76122;BME280;64853;53.200;6.080;2023-03-31T23:30:25;99173.03;;;18.50;46.13
76122;BME280;64853;53.200;6.080;2023-03-31T23:35:17;99179.00;;;18.52;46.37
76122;BME280;64853;53.200;6.080;2023-03-31T23:40:11;99180.47;;;18.49;46.26
76122;BME280;64853;53.200;6.080;2023-03-31T23:45:05;99182.75;;;18.47;46.16
76122;BME280;64853;53.200;6.080;2023-03-31T23:49:58;99185.84;;;18.46;46.32
76122;BME280;64853;53.200;6.080;2023-03-31T23:54:50;99175.47;;;18.43;46.37
76122;BME280;64853;53.200;6.080;2023-03-31T23:59:43;99188.13;;;18.44;46.24
